sensor_id;sensor_type;location;lat;lon;timestamp;P1;durP1;ratioP1;P2;durP2;ratioP2
36797;SDS011;22748;8.426;99.512;2023-12-28T00:00:47;104.78;;;95.80;;
36797;SDS011;22748;8.426;99.512;2023-12-28T00:03:18;95.97;;;87.57;;
36797;SDS011;22748;8.426;99.512;2023-12-28T00:05:49;95.18;;;87.28;;
36797;SDS011;22748;8.426;99.512;2023-12-28T00:08:20;102.15;;;93.50;;
36797;SDS011;22748;8.426;99.512;2023-12-28T00:10:51;100.95;;;93.20;;
36797;SDS011;22748;8.426;99.512;2023-12-28T00:13:21;96.18;;;88.53;;
36797;SDS011;22748;8.426;99.512;2023-12-28T00:15:58;98.07;;;90.18;;
36797;SDS011;22748;8.426;99.512;2023-12-28T00:18:29;102.35;;;93.55;;
36797;SDS011;22748;8.426;99.512;2023-12-28T00:20:59;110.07;;;101.13;;
36797;SDS011;22748;8.426;99.512;2023-12-28T00:23:30;92.80;;;85.47;;
36797;SDS011;22748;8.426;99.512;2023-12-28T00:25:59;103.68;;;94.55;;
36797;SDS011;22748;8.426;99.512;2023-12-28T00:28:30;82.32;;;76.00;;
36797;SDS011;22748;8.426;99.512;2023-12-28T00:31:03;82.07;;;74.82;;
36797;SDS011;22748;8.426;99.512;2023-12-28T00:33:33;114.45;;;104.45;;
36797;SDS011;22748;8.426;99.512;2023-12-28T00:36:04;85.13;;;78.28;;
36797;SDS011;22748;8.426;99.512;2023-12-28T00:38:36;81.90;;;75.18;;
36797;SDS011;22748;8.426;99.512;2023-12-28T00:41:06;71.05;;;65.05;;
36797;SDS011;22748;8.426;99.512;2023-12-28T00:43:38;56.95;;;51.63;;
36797;SDS011;22748;8.426;99.512;2023-12-28T00:46:14;68.18;;;62.33;;
36797;SDS011;22748;8.426;99.512;2023-12-28T00:48:45;65.63;;;60.10;;
36797;SDS011;22748;8.426;99.512;2023-12-28T00:51:16;56.92;;;51.63;;
36797;SDS011;22748;8.426;99.512;2023-12-28T00:53:47;75.28;;;68.40;;
36797;SDS011;22748;8.426;99.512;2023-12-28T00:56:17;64.78;;;58.95;;
36797;SDS011;22748;8.426;99.512;2023-12-28T00:58:49;72.75;;;66.40;;
36797;SDS011;22748;8.426;99.512;2023-12-28T01:01:25;74.05;;;66.60;;
36797;SDS011;22748;8.426;99.512;2023-12-28T01:03:56;77.05;;;70.38;;
36797;SDS011;22748;8.426;99.512;2023-12-28T01:06:28;73.00;;;67.07;;
36797;SDS011;22748;8.426;99.512;2023-12-28T01:08:58;76.32;;;69.70;;
36797;SDS011;22748;8.426;99.512;2023-12-28T01:11:29;82.10;;;74.63;;
36797;SDS011;22748;8.426;99.512;2023-12-28T01:14:01;76.35;;;69.80;;
36797;SDS011;22748;8.426;99.512;2023-12-28T01:16:37;76.53;;;70.15;;
36797;SDS011;22748;8.426;99.512;2023-12-28T01:19:10;69.35;;;63.45;;
36797;SDS011;22748;8.426;99.512;2023-12-28T01:21:41;75.47;;;69.03;;
36797;SDS011;22748;8.426;99.512;2023-12-28T01:24:12;87.55;;;80.05;;
36797;SDS011;22748;8.426;99.512;2023-12-28T01:26:42;77.00;;;70.57;;
36797;SDS011;22748;8.426;99.512;2023-12-28T01:29:13;78.05;;;71.18;;
36797;SDS011;22748;8.426;99.512;2023-12-28T01:31:46;79.97;;;73.10;;
36797;SDS011;22748;8.426;99.512;2023-12-28T01:34:17;83.70;;;77.13;;
36797;SDS011;22748;8.426;99.512;2023-12-28T01:36:48;78.70;;;71.90;;
36797;SDS011;22748;8.426;99.512;2023-12-28T01:39:18;85.80;;;78.40;;
36797;SDS011;22748;8.426;99.512;2023-12-28T01:41:49;86.97;;;79.57;;
36797;SDS011;22748;8.426;99.512;2023-12-28T01:44:18;78.00;;;71.60;;
36797;SDS011;22748;8.426;99.512;2023-12-28T01:46:51;76.65;;;70.57;;
36797;SDS011;22748;8.426;99.512;2023-12-28T01:49:22;79.63;;;72.65;;
36797;SDS011;22748;8.426;99.512;2023-12-28T01:51:54;81.78;;;74.80;;
36797;SDS011;22748;8.426;99.512;2023-12-28T01:54:25;85.82;;;77.78;;
36797;SDS011;22748;8.426;99.512;2023-12-28T01:56:56;79.13;;;72.18;;
36797;SDS011;22748;8.426;99.512;2023-12-28T01:59:29;77.40;;;70.90;;
36797;SDS011;22748;8.426;99.512;2023-12-28T02:02:02;77.15;;;70.68;;
36797;SDS011;22748;8.426;99.512;2023-12-28T02:04:33;69.88;;;64.15;;
36797;SDS011;22748;8.426;99.512;2023-12-28T02:07:04;70.78;;;64.97;;
36797;SDS011;22748;8.426;99.512;2023-12-28T02:09:36;70.68;;;64.95;;
36797;SDS011;22748;8.426;99.512;2023-12-28T02:12:07;71.55;;;65.32;;
36797;SDS011;22748;8.426;99.512;2023-12-28T02:14:38;75.63;;;68.28;;
36797;SDS011;22748;8.426;99.512;2023-12-28T02:17:15;79.55;;;72.32;;
36797;SDS011;22748;8.426;99.512;2023-12-28T02:19:52;77.55;;;70.03;;
36797;SDS011;22748;8.426;99.512;2023-12-28T02:22:25;65.85;;;59.85;;
36797;SDS011;22748;8.426;99.512;2023-12-28T02:25:08;62.10;;;56.50;;
36797;SDS011;22748;8.426;99.512;2023-12-28T02:27:40;62.42;;;56.55;;
36797;SDS011;22748;8.426;99.512;2023-12-28T02:30:12;63.03;;;57.30;;
36797;SDS011;22748;8.426;99.512;2023-12-28T02:32:49;62.72;;;57.13;;
36797;SDS011;22748;8.426;99.512;2023-12-28T02:35:29;60.40;;;55.00;;
36797;SDS011;22748;8.426;99.512;2023-12-28T02:38:02;60.53;;;55.35;;
36797;SDS011;22748;8.426;99.512;2023-12-28T02:40:37;58.55;;;53.50;;
36797;SDS011;22748;8.426;99.512;2023-12-28T02:43:10;56.78;;;51.60;;
36797;SDS011;22748;8.426;99.512;2023-12-28T02:45:41;49.17;;;45.10;;
36797;SDS011;22748;8.426;99.512;2023-12-28T02:48:12;50.03;;;45.85;;
36797;SDS011;22748;8.426;99.512;2023-12-28T02:50:43;53.90;;;49.58;;
36797;SDS011;22748;8.426;99.512;2023-12-28T02:53:15;50.15;;;46.22;;
36797;SDS011;22748;8.426;99.512;2023-12-28T02:55:52;51.97;;;47.65;;
36797;SDS011;22748;8.426;99.512;2023-12-28T02:58:23;46.75;;;43.25;;
36797;SDS011;22748;8.426;99.512;2023-12-28T03:00:54;48.80;;;45.30;;
36797;SDS011;22748;8.426;99.512;2023-12-28T03:03:25;49.25;;;45.22;;
36797;SDS011;22748;8.426;99.512;2023-12-28T03:05:55;47.40;;;43.85;;
36797;SDS011;22748;8.426;99.512;2023-12-28T03:08:26;46.85;;;42.63;;
36797;SDS011;22748;8.426;99.512;2023-12-28T03:10:59;48.72;;;45.13;;
36797;SDS011;22748;8.426;99.512;2023-12-28T03:13:29;43.38;;;39.80;;
36797;SDS011;22748;8.426;99.512;2023-12-28T03:16:00;36.95;;;33.92;;
36797;SDS011;22748;8.426;99.512;2023-12-28T03:18:31;45.03;;;41.58;;
36797;SDS011;22748;8.426;99.512;2023-12-28T03:21:02;48.95;;;45.47;;
36797;SDS011;22748;8.426;99.512;2023-12-28T03:23:32;44.13;;;40.78;;
36797;SDS011;22748;8.426;99.512;2023-12-28T03:26:10;34.97;;;32.22;;
36797;SDS011;22748;8.426;99.512;2023-12-28T03:28:41;35.97;;;33.13;;
36797;SDS011;22748;8.426;99.512;2023-12-28T03:31:12;42.60;;;39.55;;
36797;SDS011;22748;8.426;99.512;2023-12-28T03:33:42;43.70;;;40.45;;
36797;SDS011;22748;8.426;99.512;2023-12-28T03:36:18;48.33;;;44.80;;
36797;SDS011;22748;8.426;99.512;2023-12-28T03:38:49;40.88;;;37.50;;
36797;SDS011;22748;8.426;99.512;2023-12-28T03:41:26;38.28;;;34.78;;
36797;SDS011;22748;8.426;99.512;2023-12-28T03:43:57;42.53;;;38.60;;
36797;SDS011;22748;8.426;99.512;2023-12-28T03:46:27;37.55;;;33.58;;
36797;SDS011;22748;8.426;99.512;2023-12-28T03:48:58;35.10;;;31.63;;
36797;SDS011;22748;8.426;99.512;2023-12-28T03:51:29;37.22;;;33.92;;
36797;SDS011;22748;8.426;99.512;2023-12-28T03:54:00;32.35;;;29.15;;
36797;SDS011;22748;8.426;99.512;2023-12-28T03:56:36;35.08;;;30.58;;
36797;SDS011;22748;8.426;99.512;2023-12-28T03:59:09;31.30;;;28.33;;
36797;SDS011;22748;8.426;99.512;2023-12-28T04:01:41;35.65;;;32.58;;
36797;SDS011;22748;8.426;99.512;2023-12-28T04:04:11;30.55;;;27.48;;
36797;SDS011;22748;8.426;99.512;2023-12-28T04:06:42;27.80;;;24.83;;
36797;SDS011;22748;8.426;99.512;2023-12-28T04:09:12;26.90;;;24.27;;
36797;SDS011;22748;8.426;99.512;2023-12-28T04:11:49;25.90;;;23.30;;
36797;SDS011;22748;8.426;99.512;2023-12-28T04:14:20;23.73;;;21.83;;
36797;SDS011;22748;8.426;99.512;2023-12-28T04:16:51;25.27;;;22.92;;
36797;SDS011;22748;8.426;99.512;2023-12-28T04:19:22;24.48;;;22.38;;
36797;SDS011;22748;8.426;99.512;2023-12-28T04:21:52;29.17;;;26.48;;
36797;SDS011;22748;8.426;99.512;2023-12-28T04:24:24;30.92;;;27.77;;
36797;SDS011;22748;8.426;99.512;2023-12-28T04:27:01;25.15;;;22.65;;
36797;SDS011;22748;8.426;99.512;2023-12-28T04:29:32;25.88;;;23.33;;
36797;SDS011;22748;8.426;99.512;2023-12-28T04:32:04;28.85;;;25.83;;
36797;SDS011;22748;8.426;99.512;2023-12-28T04:34:36;27.73;;;25.02;;
36797;SDS011;22748;8.426;99.512;2023-12-28T04:37:06;28.45;;;25.63;;
36797;SDS011;22748;8.426;99.512;2023-12-28T04:39:37;23.23;;;21.08;;
36797;SDS011;22748;8.426;99.512;2023-12-28T04:42:14;32.22;;;29.42;;
36797;SDS011;22748;8.426;99.512;2023-12-28T04:44:45;31.08;;;28.10;;
36797;SDS011;22748;8.426;99.512;2023-12-28T04:47:16;37.03;;;34.30;;
36797;SDS011;22748;8.426;99.512;2023-12-28T04:49:46;53.33;;;49.05;;
36797;SDS011;22748;8.426;99.512;2023-12-28T04:52:25;32.03;;;29.17;;
36797;SDS011;22748;8.426;99.512;2023-12-28T04:54:55;44.05;;;40.45;;
36797;SDS011;22748;8.426;99.512;2023-12-28T04:57:29;24.08;;;21.95;;
36797;SDS011;22748;8.426;99.512;2023-12-28T04:59:59;28.77;;;26.30;;
36797;SDS011;22748;8.426;99.512;2023-12-28T05:02:30;33.28;;;30.52;;
36797;SDS011;22748;8.426;99.512;2023-12-28T05:05:01;20.15;;;18.15;;
36797;SDS011;22748;8.426;99.512;2023-12-28T05:07:33;20.92;;;18.90;;
36797;SDS011;22748;8.426;99.512;2023-12-28T05:12:39;37.63;;;34.92;;
36797;SDS011;22748;8.426;99.512;2023-12-28T05:15:10;20.35;;;18.35;;
36797;SDS011;22748;8.426;99.512;2023-12-28T05:17:45;28.75;;;26.52;;
36797;SDS011;22748;8.426;99.512;2023-12-28T05:20:17;32.97;;;30.50;;
36797;SDS011;22748;8.426;99.512;2023-12-28T05:22:48;22.75;;;20.83;;
36797;SDS011;22748;8.426;99.512;2023-12-28T05:25:19;18.30;;;16.85;;
36797;SDS011;22748;8.426;99.512;2023-12-28T05:27:55;18.45;;;16.75;;
36797;SDS011;22748;8.426;99.512;2023-12-28T05:30:25;31.92;;;29.52;;
36797;SDS011;22748;8.426;99.512;2023-12-28T05:32:56;30.83;;;28.50;;
36797;SDS011;22748;8.426;99.512;2023-12-28T05:35:27;15.75;;;13.77;;
36797;SDS011;22748;8.426;99.512;2023-12-28T05:37:58;32.97;;;30.83;;
36797;SDS011;22748;8.426;99.512;2023-12-28T05:40:29;32.80;;;30.60;;
36797;SDS011;22748;8.426;99.512;2023-12-28T05:43:05;27.48;;;17.80;;
36797;SDS011;22748;8.426;99.512;2023-12-28T05:45:36;17.55;;;15.80;;
36797;SDS011;22748;8.426;99.512;2023-12-28T05:48:06;19.13;;;17.45;;
36797;SDS011;22748;8.426;99.512;2023-12-28T05:50:37;18.90;;;13.32;;
36797;SDS011;22748;8.426;99.512;2023-12-28T05:53:08;17.75;;;16.17;;
36797;SDS011;22748;8.426;99.512;2023-12-28T05:55:40;31.02;;;28.63;;
36797;SDS011;22748;8.426;99.512;2023-12-28T05:58:17;23.33;;;20.70;;
36797;SDS011;22748;8.426;99.512;2023-12-28T06:00:48;31.38;;;29.02;;
36797;SDS011;22748;8.426;99.512;2023-12-28T06:03:19;21.25;;;19.55;;
36797;SDS011;22748;8.426;99.512;2023-12-28T06:05:54;29.70;;;27.50;;
36797;SDS011;22748;8.426;99.512;2023-12-28T06:08:25;15.82;;;14.27;;
36797;SDS011;22748;8.426;99.512;2023-12-28T06:10:55;25.83;;;24.02;;
36797;SDS011;22748;8.426;99.512;2023-12-28T06:13:29;30.38;;;28.25;;
36797;SDS011;22748;8.426;99.512;2023-12-28T06:15:59;33.45;;;30.30;;
36797;SDS011;22748;8.426;99.512;2023-12-28T06:18:30;29.60;;;27.35;;
36797;SDS011;22748;8.426;99.512;2023-12-28T06:21:01;18.83;;;17.00;;
36797;SDS011;22748;8.426;99.512;2023-12-28T06:23:33;27.83;;;25.80;;
36797;SDS011;22748;8.426;99.512;2023-12-28T06:26:07;28.77;;;26.70;;
36797;SDS011;22748;8.426;99.512;2023-12-28T06:28:43;33.95;;;31.55;;
36797;SDS011;22748;8.426;99.512;2023-12-28T06:31:13;31.67;;;29.13;;
36797;SDS011;22748;8.426;99.512;2023-12-28T06:33:45;49.03;;;45.15;;
36797;SDS011;22748;8.426;99.512;2023-12-28T06:36:17;39.90;;;37.00;;
36797;SDS011;22748;8.426;99.512;2023-12-28T06:38:48;42.75;;;39.90;;
36797;SDS011;22748;8.426;99.512;2023-12-28T06:43:55;38.55;;;35.95;;
36797;SDS011;22748;8.426;99.512;2023-12-28T06:46:26;44.83;;;41.67;;
36797;SDS011;22748;8.426;99.512;2023-12-28T06:48:57;39.97;;;37.15;;
36797;SDS011;22748;8.426;99.512;2023-12-28T06:51:28;30.55;;;28.08;;
36797;SDS011;22748;8.426;99.512;2023-12-28T06:53:59;31.92;;;29.55;;
36797;SDS011;22748;8.426;99.512;2023-12-28T06:56:29;29.45;;;27.25;;
36797;SDS011;22748;8.426;99.512;2023-12-28T06:59:06;30.50;;;28.45;;
36797;SDS011;22748;8.426;99.512;2023-12-28T07:01:38;32.90;;;30.80;;
36797;SDS011;22748;8.426;99.512;2023-12-28T07:04:10;29.60;;;27.40;;
36797;SDS011;22748;8.426;99.512;2023-12-28T07:06:41;26.83;;;25.13;;
36797;SDS011;22748;8.426;99.512;2023-12-28T07:09:11;31.10;;;28.63;;
36797;SDS011;22748;8.426;99.512;2023-12-28T07:11:42;28.25;;;26.15;;
36797;SDS011;22748;8.426;99.512;2023-12-28T07:14:18;25.08;;;23.13;;
36797;SDS011;22748;8.426;99.512;2023-12-28T07:16:48;34.20;;;31.60;;
36797;SDS011;22748;8.426;99.512;2023-12-28T07:19:19;32.42;;;30.15;;
36797;SDS011;22748;8.426;99.512;2023-12-28T07:21:50;35.78;;;33.17;;
36797;SDS011;22748;8.426;99.512;2023-12-28T07:24:20;36.47;;;33.58;;
36797;SDS011;22748;8.426;99.512;2023-12-28T07:26:51;34.22;;;31.65;;
36797;SDS011;22748;8.426;99.512;2023-12-28T07:29:28;35.10;;;32.15;;
36797;SDS011;22748;8.426;99.512;2023-12-28T07:31:59;35.13;;;32.63;;
36797;SDS011;22748;8.426;99.512;2023-12-28T07:34:30;32.92;;;30.38;;
36797;SDS011;22748;8.426;99.512;2023-12-28T07:37:01;33.08;;;30.63;;
36797;SDS011;22748;8.426;99.512;2023-12-28T07:39:31;35.13;;;32.58;;
36797;SDS011;22748;8.426;99.512;2023-12-28T07:44:38;30.05;;;27.80;;
36797;SDS011;22748;8.426;99.512;2023-12-28T07:47:09;34.63;;;32.08;;
36797;SDS011;22748;8.426;99.512;2023-12-28T07:49:40;33.60;;;31.08;;
36797;SDS011;22748;8.426;99.512;2023-12-28T07:52:11;32.47;;;30.25;;
36797;SDS011;22748;8.426;99.512;2023-12-28T07:54:41;33.38;;;31.13;;
36797;SDS011;22748;8.426;99.512;2023-12-28T07:57:12;33.45;;;30.85;;
36797;SDS011;22748;8.426;99.512;2023-12-28T07:59:49;31.17;;;28.63;;
36797;SDS011;22748;8.426;99.512;2023-12-28T08:02:20;33.90;;;31.38;;
36797;SDS011;22748;8.426;99.512;2023-12-28T08:04:50;34.55;;;31.85;;
36797;SDS011;22748;8.426;99.512;2023-12-28T08:07:21;35.38;;;32.95;;
36797;SDS011;22748;8.426;99.512;2023-12-28T08:09:51;30.17;;;27.98;;
36797;SDS011;22748;8.426;99.512;2023-12-28T08:12:22;31.63;;;29.42;;
36797;SDS011;22748;8.426;99.512;2023-12-28T08:17:29;31.52;;;29.33;;
36797;SDS011;22748;8.426;99.512;2023-12-28T08:20:00;19.92;;;18.38;;
36797;SDS011;22748;8.426;99.512;2023-12-28T08:22:30;33.53;;;31.02;;
36797;SDS011;22748;8.426;99.512;2023-12-28T08:25:01;36.83;;;34.10;;
36797;SDS011;22748;8.426;99.512;2023-12-28T08:27:32;33.78;;;31.45;;
36797;SDS011;22748;8.426;99.512;2023-12-28T08:30:08;35.22;;;32.35;;
36797;SDS011;22748;8.426;99.512;2023-12-28T08:32:40;34.95;;;32.78;;
36797;SDS011;22748;8.426;99.512;2023-12-28T08:35:11;30.88;;;28.80;;
36797;SDS011;22748;8.426;99.512;2023-12-28T08:37:41;38.58;;;35.72;;
36797;SDS011;22748;8.426;99.512;2023-12-28T08:40:11;33.72;;;31.42;;
36797;SDS011;22748;8.426;99.512;2023-12-28T08:42:42;36.03;;;33.63;;
36797;SDS011;22748;8.426;99.512;2023-12-28T08:45:19;33.08;;;30.83;;
36797;SDS011;22748;8.426;99.512;2023-12-28T08:47:50;36.92;;;34.38;;
36797;SDS011;22748;8.426;99.512;2023-12-28T08:50:20;40.25;;;37.42;;
36797;SDS011;22748;8.426;99.512;2023-12-28T08:52:51;35.42;;;32.97;;
36797;SDS011;22748;8.426;99.512;2023-12-28T08:55:23;35.85;;;33.42;;
36797;SDS011;22748;8.426;99.512;2023-12-28T08:57:54;45.25;;;40.88;;
36797;SDS011;22748;8.426;99.512;2023-12-28T09:00:31;43.05;;;39.35;;
36797;SDS011;22748;8.426;99.512;2023-12-28T09:03:02;37.83;;;34.72;;
36797;SDS011;22748;8.426;99.512;2023-12-28T09:05:34;37.15;;;34.33;;
36797;SDS011;22748;8.426;99.512;2023-12-28T09:08:05;34.40;;;31.85;;
36797;SDS011;22748;8.426;99.512;2023-12-28T09:13:07;34.67;;;31.95;;
36797;SDS011;22748;8.426;99.512;2023-12-28T09:15:50;33.90;;;31.13;;
36797;SDS011;22748;8.426;99.512;2023-12-28T09:18:21;35.40;;;32.85;;
36797;SDS011;22748;8.426;99.512;2023-12-28T09:20:52;35.15;;;31.75;;
36797;SDS011;22748;8.426;99.512;2023-12-28T09:23:23;34.83;;;32.42;;
36797;SDS011;22748;8.426;99.512;2023-12-28T09:25:54;32.53;;;30.17;;
36797;SDS011;22748;8.426;99.512;2023-12-28T09:28:25;32.65;;;30.35;;
36797;SDS011;22748;8.426;99.512;2023-12-28T09:33:27;30.58;;;28.33;;
36797;SDS011;22748;8.426;99.512;2023-12-28T09:35:58;27.27;;;25.30;;
36797;SDS011;22748;8.426;99.512;2023-12-28T09:38:28;29.30;;;27.38;;
36797;SDS011;22748;8.426;99.512;2023-12-28T09:40:59;33.55;;;31.40;;
36797;SDS011;22748;8.426;99.512;2023-12-28T09:43:42;30.10;;;28.05;;
36797;SDS011;22748;8.426;99.512;2023-12-28T09:46:28;31.77;;;29.67;;
36797;SDS011;22748;8.426;99.512;2023-12-28T09:48:59;31.90;;;29.95;;
36797;SDS011;22748;8.426;99.512;2023-12-28T09:51:30;32.50;;;30.05;;
36797;SDS011;22748;8.426;99.512;2023-12-28T09:54:01;32.35;;;29.90;;
36797;SDS011;22748;8.426;99.512;2023-12-28T09:56:33;30.10;;;27.83;;
36797;SDS011;22748;8.426;99.512;2023-12-28T09:59:05;33.40;;;30.60;;
36797;SDS011;22748;8.426;99.512;2023-12-28T10:04:12;28.02;;;25.90;;
36797;SDS011;22748;8.426;99.512;2023-12-28T10:06:44;32.53;;;30.42;;
36797;SDS011;22748;8.426;99.512;2023-12-28T10:09:15;30.58;;;28.33;;
36797;SDS011;22748;8.426;99.512;2023-12-28T10:11:46;32.45;;;29.88;;
36797;SDS011;22748;8.426;99.512;2023-12-28T10:14:18;32.85;;;30.42;;
36797;SDS011;22748;8.426;99.512;2023-12-28T10:16:52;32.10;;;30.00;;
36797;SDS011;22748;8.426;99.512;2023-12-28T10:19:23;32.63;;;30.10;;
36797;SDS011;22748;8.426;99.512;2023-12-28T10:21:54;32.88;;;30.38;;
36797;SDS011;22748;8.426;99.512;2023-12-28T10:24:26;32.13;;;30.13;;
36797;SDS011;22748;8.426;99.512;2023-12-28T10:26:56;31.30;;;29.23;;
36797;SDS011;22748;8.426;99.512;2023-12-28T10:29:27;30.77;;;28.55;;
36797;SDS011;22748;8.426;99.512;2023-12-28T10:32:01;30.17;;;28.08;;
36797;SDS011;22748;8.426;99.512;2023-12-28T10:34:32;31.05;;;29.00;;
36797;SDS011;22748;8.426;99.512;2023-12-28T10:37:03;30.15;;;27.42;;
36797;SDS011;22748;8.426;99.512;2023-12-28T10:39:36;34.53;;;32.17;;
36797;SDS011;22748;8.426;99.512;2023-12-28T10:42:08;36.85;;;34.33;;
36797;SDS011;22748;8.426;99.512;2023-12-28T10:44:43;41.42;;;38.13;;
36797;SDS011;22748;8.426;99.512;2023-12-28T10:47:17;40.45;;;36.83;;
36797;SDS011;22748;8.426;99.512;2023-12-28T10:49:51;41.55;;;37.85;;
36797;SDS011;22748;8.426;99.512;2023-12-28T10:52:25;41.95;;;37.67;;
36797;SDS011;22748;8.426;99.512;2023-12-28T10:55:02;41.95;;;37.78;;
36797;SDS011;22748;8.426;99.512;2023-12-28T10:57:51;37.90;;;34.83;;
36797;SDS011;22748;8.426;99.512;2023-12-28T11:00:29;35.35;;;32.47;;
36797;SDS011;22748;8.426;99.512;2023-12-28T11:03:11;35.50;;;32.95;;
36797;SDS011;22748;8.426;99.512;2023-12-28T11:05:44;36.67;;;34.03;;
36797;SDS011;22748;8.426;99.512;2023-12-28T11:08:16;32.63;;;30.38;;
36797;SDS011;22748;8.426;99.512;2023-12-28T11:10:50;34.25;;;31.50;;
36797;SDS011;22748;8.426;99.512;2023-12-28T11:13:22;36.22;;;33.55;;
36797;SDS011;22748;8.426;99.512;2023-12-28T11:15:53;36.35;;;33.53;;
36797;SDS011;22748;8.426;99.512;2023-12-28T11:18:31;38.42;;;35.80;;
36797;SDS011;22748;8.426;99.512;2023-12-28T11:21:02;32.97;;;30.80;;
36797;SDS011;22748;8.426;99.512;2023-12-28T11:23:33;31.42;;;29.20;;
36797;SDS011;22748;8.426;99.512;2023-12-28T11:26:05;33.90;;;31.63;;
36797;SDS011;22748;8.426;99.512;2023-12-28T11:28:47;34.85;;;32.22;;
36797;SDS011;22748;8.426;99.512;2023-12-28T11:31:18;34.60;;;32.08;;
36797;SDS011;22748;8.426;99.512;2023-12-28T11:33:56;36.25;;;33.60;;
36797;SDS011;22748;8.426;99.512;2023-12-28T11:36:33;34.10;;;31.65;;
36797;SDS011;22748;8.426;99.512;2023-12-28T11:39:06;34.53;;;31.48;;
36797;SDS011;22748;8.426;99.512;2023-12-28T11:41:37;36.97;;;33.67;;
36797;SDS011;22748;8.426;99.512;2023-12-28T11:44:12;35.17;;;32.63;;
36797;SDS011;22748;8.426;99.512;2023-12-28T11:46:45;40.78;;;37.45;;
36797;SDS011;22748;8.426;99.512;2023-12-28T11:49:24;42.88;;;39.45;;
36797;SDS011;22748;8.426;99.512;2023-12-28T11:51:56;41.93;;;38.07;;
36797;SDS011;22748;8.426;99.512;2023-12-28T11:54:27;39.00;;;35.65;;
36797;SDS011;22748;8.426;99.512;2023-12-28T11:56:58;42.95;;;39.28;;
36797;SDS011;22748;8.426;99.512;2023-12-28T11:59:28;36.83;;;33.53;;
36797;SDS011;22748;8.426;99.512;2023-12-28T12:02:01;42.17;;;38.53;;
36797;SDS011;22748;8.426;99.512;2023-12-28T12:04:39;57.47;;;53.30;;
36797;SDS011;22748;8.426;99.512;2023-12-28T12:07:10;49.42;;;45.53;;
36797;SDS011;22748;8.426;99.512;2023-12-28T12:09:41;40.97;;;37.13;;
36797;SDS011;22748;8.426;99.512;2023-12-28T12:12:12;42.05;;;38.33;;
36797;SDS011;22748;8.426;99.512;2023-12-28T12:14:45;40.75;;;37.08;;
36797;SDS011;22748;8.426;99.512;2023-12-28T12:17:16;39.88;;;36.40;;
36797;SDS011;22748;8.426;99.512;2023-12-28T12:19:54;37.08;;;34.05;;
36797;SDS011;22748;8.426;99.512;2023-12-28T12:22:25;39.13;;;35.55;;
36797;SDS011;22748;8.426;99.512;2023-12-28T12:24:56;35.70;;;32.78;;
36797;SDS011;22748;8.426;99.512;2023-12-28T12:27:30;38.22;;;34.60;;
36797;SDS011;22748;8.426;99.512;2023-12-28T12:30:02;39.42;;;36.20;;
36797;SDS011;22748;8.426;99.512;2023-12-28T12:32:33;41.90;;;37.97;;
36797;SDS011;22748;8.426;99.512;2023-12-28T12:35:16;40.03;;;36.25;;
36797;SDS011;22748;8.426;99.512;2023-12-28T12:37:47;42.03;;;38.42;;
36797;SDS011;22748;8.426;99.512;2023-12-28T12:42:52;34.65;;;31.67;;
36797;SDS011;22748;8.426;99.512;2023-12-28T12:45:24;39.65;;;36.03;;
36797;SDS011;22748;8.426;99.512;2023-12-28T12:47:55;35.13;;;32.25;;
36797;SDS011;22748;8.426;99.512;2023-12-28T12:50:32;40.20;;;36.97;;
36797;SDS011;22748;8.426;99.512;2023-12-28T12:53:05;55.72;;;51.25;;
36797;SDS011;22748;8.426;99.512;2023-12-28T12:55:36;55.42;;;51.30;;
36797;SDS011;22748;8.426;99.512;2023-12-28T12:58:08;40.90;;;37.10;;
36797;SDS011;22748;8.426;99.512;2023-12-28T13:00:42;44.13;;;40.20;;
36797;SDS011;22748;8.426;99.512;2023-12-28T13:03:15;58.42;;;53.72;;
36797;SDS011;22748;8.426;99.512;2023-12-28T13:05:52;59.03;;;54.20;;
36797;SDS011;22748;8.426;99.512;2023-12-28T13:08:23;56.22;;;51.17;;
36797;SDS011;22748;8.426;99.512;2023-12-28T13:10:55;40.45;;;36.88;;
36797;SDS011;22748;8.426;99.512;2023-12-28T13:13:26;61.33;;;56.40;;
36797;SDS011;22748;8.426;99.512;2023-12-28T13:15:57;47.42;;;43.58;;
36797;SDS011;22748;8.426;99.512;2023-12-28T13:18:32;47.55;;;43.53;;
36797;SDS011;22748;8.426;99.512;2023-12-28T13:21:20;46.30;;;41.72;;
36797;SDS011;22748;8.426;99.512;2023-12-28T13:23:51;37.63;;;34.47;;
36797;SDS011;22748;8.426;99.512;2023-12-28T13:26:23;40.20;;;36.83;;
36797;SDS011;22748;8.426;99.512;2023-12-28T13:28:54;37.85;;;34.60;;
36797;SDS011;22748;8.426;99.512;2023-12-28T13:31:25;39.70;;;36.38;;
36797;SDS011;22748;8.426;99.512;2023-12-28T13:34:00;40.55;;;36.58;;
36797;SDS011;22748;8.426;99.512;2023-12-28T13:36:34;39.83;;;36.65;;
36797;SDS011;22748;8.426;99.512;2023-12-28T13:39:05;37.97;;;34.83;;
36797;SDS011;22748;8.426;99.512;2023-12-28T13:41:40;38.15;;;35.25;;
36797;SDS011;22748;8.426;99.512;2023-12-28T13:44:11;38.50;;;35.38;;
36797;SDS011;22748;8.426;99.512;2023-12-28T13:46:43;36.67;;;33.75;;
36797;SDS011;22748;8.426;99.512;2023-12-28T13:49:15;38.13;;;35.03;;
36797;SDS011;22748;8.426;99.512;2023-12-28T13:51:48;36.83;;;33.75;;
36797;SDS011;22748;8.426;99.512;2023-12-28T13:54:19;39.08;;;36.00;;
36797;SDS011;22748;8.426;99.512;2023-12-28T13:56:49;36.92;;;33.95;;
36797;SDS011;22748;8.426;99.512;2023-12-28T13:59:23;42.65;;;38.88;;
36797;SDS011;22748;8.426;99.512;2023-12-28T14:01:54;38.70;;;35.13;;
36797;SDS011;22748;8.426;99.512;2023-12-28T14:07:00;33.65;;;30.85;;
36797;SDS011;22748;8.426;99.512;2023-12-28T14:09:31;36.80;;;33.65;;
36797;SDS011;22748;8.426;99.512;2023-12-28T14:12:06;36.38;;;33.45;;
36797;SDS011;22748;8.426;99.512;2023-12-28T14:14:41;38.25;;;35.15;;
36797;SDS011;22748;8.426;99.512;2023-12-28T14:17:12;38.67;;;35.65;;
36797;SDS011;22748;8.426;99.512;2023-12-28T14:19:45;36.20;;;33.20;;
36797;SDS011;22748;8.426;99.512;2023-12-28T14:22:22;36.97;;;34.33;;
36797;SDS011;22748;8.426;99.512;2023-12-28T14:24:54;36.20;;;33.58;;
36797;SDS011;22748;8.426;99.512;2023-12-28T14:27:25;35.28;;;32.55;;
36797;SDS011;22748;8.426;99.512;2023-12-28T14:29:57;36.85;;;33.67;;
36797;SDS011;22748;8.426;99.512;2023-12-28T14:32:30;36.45;;;33.67;;
36797;SDS011;22748;8.426;99.512;2023-12-28T14:35:01;37.45;;;34.35;;
36797;SDS011;22748;8.426;99.512;2023-12-28T14:37:38;37.65;;;34.08;;
36797;SDS011;22748;8.426;99.512;2023-12-28T14:40:10;38.17;;;34.85;;
36797;SDS011;22748;8.426;99.512;2023-12-28T14:42:41;39.80;;;36.60;;
36797;SDS011;22748;8.426;99.512;2023-12-28T14:45:13;37.67;;;34.78;;
36797;SDS011;22748;8.426;99.512;2023-12-28T14:47:44;35.13;;;32.17;;
36797;SDS011;22748;8.426;99.512;2023-12-28T14:50:15;36.28;;;33.58;;
36797;SDS011;22748;8.426;99.512;2023-12-28T14:55:21;35.63;;;32.85;;
36797;SDS011;22748;8.426;99.512;2023-12-28T14:57:53;36.67;;;33.83;;
36797;SDS011;22748;8.426;99.512;2023-12-28T15:00:25;38.15;;;35.25;;
36797;SDS011;22748;8.426;99.512;2023-12-28T15:02:55;42.42;;;38.40;;
36797;SDS011;22748;8.426;99.512;2023-12-28T15:05:26;40.83;;;37.55;;
36797;SDS011;22748;8.426;99.512;2023-12-28T15:08:03;41.08;;;37.55;;
36797;SDS011;22748;8.426;99.512;2023-12-28T15:10:35;41.92;;;38.88;;
36797;SDS011;22748;8.426;99.512;2023-12-28T15:13:06;39.90;;;36.83;;
36797;SDS011;22748;8.426;99.512;2023-12-28T15:15:37;38.20;;;35.13;;